Time;durP1;ratioP1;P1;durP2;ratioP2;P2;SDS_P1;SDS_P2;PMS_P1;PMS_P2;Temp;Humidity;BMP_temperature;BMP_pressure;BME280_temperature;BME280_humidity;BME280_pressure;Samples;Min_cycle;Max_cycle;Signal;HPM_P1;HPM_P2
2022/06/29 00:00:32;;;;;;;19.88;14.63;;;;;;;18.33;93.57;96162.66;4903459;29;20504;-80
2022/06/29 00:02:58;;;;;;;19.88;14.25;;;;;;;18.34;93.64;96162.28;4900389;29;20052;-80
2022/06/29 00:05:27;;;;;;;15.35;11.70;;;;;;;18.37;93.46;96153.22;4896123;29;20059;-81
2022/06/29 00:07:55;;;;;;;17.48;13.00;;;;;;;18.35;93.74;96155.59;4896419;29;20544;-80
2022/06/29 00:10:22;;;;;;;17.35;14.15;;;;;;;18.34;93.98;96148.47;4895633;29;20057;-80
2022/06/29 00:12:49;;;;;;;16.08;13.93;;;;;;;18.34;93.91;96136.66;4895680;29;20044;-79
2022/06/29 00:15:18;;;;;;;14.48;12.07;;;;;;;18.37;93.46;96131.19;4896402;29;20067;-81
2022/06/29 00:17:44;;;;;;;14.65;12.00;;;;;;;18.41;93.21;96137.53;4897360;29;20049;-82
2022/06/29 00:20:12;;;;;;;16.20;11.70;;;;;;;18.45;93.05;96129.31;4897887;29;20536;-81
2022/06/29 00:22:40;;;;;;;17.75;14.05;;;;;;;18.42;93.26;96130.84;4898314;29;20045;-81
2022/06/29 00:25:08;;;;;;;14.73;12.52;;;;;;;18.46;93.30;96117.91;4899363;29;20049;-80
2022/06/29 00:27:35;;;;;;;17.40;14.45;;;;;;;18.44;93.27;96117.50;4900453;29;20072;-81
2022/06/29 00:30:02;;;;;;;18.40;15.27;;;;;;;18.31;93.84;96112.59;4898716;29;20472;-79
2022/06/29 00:32:30;;;;;;;17.27;14.27;;;;;;;18.36;93.56;96112.28;4899886;29;20048;-80
2022/06/29 00:34:57;;;;;;;18.50;14.43;;;;;;;18.34;93.49;96101.63;4899505;29;20053;-80
2022/06/29 00:37:24;;;;;;;17.30;12.82;;;;;;;18.36;93.38;96096.53;4899049;29;20048;-81
2022/06/29 00:39:51;;;;;;;20.15;15.40;;;;;;;18.39;93.52;96093.03;4901599;29;20044;-81
2022/06/29 00:42:18;;;;;;;16.33;13.00;;;;;;;18.37;93.39;96087.06;4900246;29;20056;-81
2022/06/29 00:44:45;;;;;;;19.75;13.60;;;;;;;18.36;93.50;96088.25;4900861;29;20431;-81
2022/06/29 00:47:11;;;;;;;18.20;12.95;;;;;;;18.31;93.75;96088.56;4901117;29;20048;-81
2022/06/29 00:49:38;;;;;;;18.25;12.73;;;;;;;18.33;93.64;96099.25;4896429;29;20048;-81
2022/06/29 00:52:07;;;;;;;16.92;12.48;;;;;;;18.34;93.64;96101.63;4878838;29;20053;-80
2022/06/29 00:54:37;;;;;;;18.55;14.18;;;;;;;18.32;93.70;96095.69;4880223;29;20072;-80
2022/06/29 00:57:08;;;;;;;19.73;12.88;;;;;;;18.31;93.74;96091.34;4880356;29;20085;-80
2022/06/29 00:59:47;;;;;;;14.15;11.43;;;;;;;18.33;93.61;96088.22;4879786;29;20041;-80
2022/06/29 01:02:15;;;;;;;15.13;11.70;;;;;;;18.33;93.58;96094.53;4878316;29;20108;-82
2022/06/29 01:04:43;;;;;;;14.80;12.38;;;;;;;18.35;93.22;96097.69;4880369;29;20053;-81
2022/06/29 01:07:12;;;;;;;14.38;11.50;;;;;;;18.38;93.14;96085.94;4881250;29;20049;-81
2022/06/29 01:09:39;;;;;;;18.42;15.05;;;;;;;18.32;93.21;96092.91;4882114;29;20067;-80
2022/06/29 01:12:08;;;;;;;13.75;12.23;;;;;;;18.27;93.43;96090.53;4880343;29;20056;-81
2022/06/29 01:14:34;;;;;;;16.52;12.48;;;;;;;18.31;93.34;96096.84;4879685;29;20053;-80
2022/06/29 01:17:01;;;;;;;15.93;13.13;;;;;;;18.30;93.41;96095.25;4879754;29;20556;-80
2022/06/29 01:19:27;;;;;;;23.88;16.90;;;;;;;18.18;93.72;96095.50;4879024;29;20059;-79
2022/06/29 01:21:56;;;;;;;16.20;14.27;;;;;;;18.15;94.27;96101.75;4883953;29;20045;-80
2022/06/29 01:24:24;;;;;;;19.88;14.80;;;;;;;18.11;94.44;96092.63;4879851;29;20055;-79
2022/06/29 01:26:51;;;;;;;22.30;16.45;;;;;;;18.07;94.54;96086.31;4880554;29;20041;-80
2022/06/29 01:29:17;;;;;;;19.55;15.70;;;;;;;18.01;95.19;96083.09;4879635;29;20057;-80
2022/06/29 01:31:44;;;;;;;17.80;13.77;;;;;;;18.00;95.37;96076.75;4879924;29;20052;-80
2022/06/29 01:34:11;;;;;;;20.30;14.77;;;;;;;17.99;95.49;96072.41;4878947;29;20053;-80
2022/06/29 01:36:38;;;;;;;15.57;12.20;;;;;;;18.07;95.40;96075.28;4879781;29;20049;-80
2022/06/29 01:39:04;;;;;;;15.27;11.63;;;;;;;18.08;95.09;96080.41;4879878;29;20049;-80
2022/06/29 01:41:32;;;;;;;16.70;12.95;;;;;;;18.09;94.74;96083.97;4880269;29;20049;-80
2022/06/29 01:43:59;;;;;;;14.30;11.30;;;;;;;18.13;94.66;96080.09;4880269;29;20417;-81
2022/06/29 01:46:26;;;;;;;12.38;10.13;;;;;;;18.16;94.22;96076.56;4879907;29;20051;-80
2022/06/29 01:48:52;;;;;;;16.80;11.57;;;;;;;18.09;94.38;96076.50;4879663;29;20409;-80
2022/06/29 01:51:19;;;;;;;12.77;11.48;;;;;;;18.07;94.74;96078.03;4879788;29;20493;-80
2022/06/29 01:53:45;;;;;;;17.50;11.18;;;;;;;18.15;94.40;96060.41;4880253;29;20528;-80
2022/06/29 01:56:12;;;;;;;15.95;12.07;;;;;;;18.17;94.30;96053.38;4879352;29;20041;-79
2022/06/29 01:58:40;;;;;;;13.80;11.25;;;;;;;18.19;94.61;96050.25;4879503;29;20052;-79
2022/06/29 02:01:06;;;;;;;16.52;13.55;;;;;;;18.23;94.46;96057.38;4879767;29;20421;-79
2022/06/29 02:03:33;;;;;;;16.67;13.55;;;;;;;18.27;94.31;96065.72;4880567;29;20049;-80
2022/06/29 02:05:59;;;;;;;15.90;11.60;;;;;;;18.29;94.12;96048.78;4879672;29;20056;-82
2022/06/29 02:08:26;;;;;;;15.38;12.38;;;;;;;18.29;94.08;96044.06;4868978;29;20049;-80
2022/06/29 02:10:53;;;;;;;20.65;15.75;;;;;;;18.22;93.82;96046.75;4880704;29;20519;-80
2022/06/29 02:13:19;;;;;;;14.00;11.63;;;;;;;18.19;94.38;96041.97;4879169;29;20045;-80
2022/06/29 02:15:47;;;;;;;13.68;10.60;;;;;;;18.25;94.53;96043.22;4880261;29;20052;-80
2022/06/29 02:18:13;;;;;;;17.38;13.18;;;;;;;18.25;95.09;96051.50;4879507;29;20042;-80
2022/06/29 02:20:40;;;;;;;20.42;14.70;;;;;;;18.24;94.62;96052.66;4883768;29;20052;-80
2022/06/29 02:23:07;;;;;;;17.38;13.38;;;;;;;18.27;94.31;96062.97;4879128;29;20049;-79
2022/06/29 02:25:34;;;;;;;16.63;12.70;;;;;;;18.28;94.06;96070.06;4863041;29;20045;-82
2022/06/29 02:28:00;;;;;;;13.02;11.30;;;;;;;18.35;93.82;96074.84;4879787;29;20045;-80
2022/06/29 02:35:52;;;;;;;16.70;13.02;;;;;;;18.43;93.60;96066.31;4880513;29;20048;-79
2022/06/29 02:38:19;;;;;;;15.48;12.63;;;;;;;18.42;93.72;96070.19;4879330;29;20041;-81
2022/06/29 02:40:46;;;;;;;16.60;11.88;;;;;;;18.45;93.54;96074.97;4879616;29;20513;-78
2022/06/29 02:43:12;;;;;;;16.25;14.13;;;;;;;18.40;93.59;96093.81;4879285;29;20049;-82
2022/06/29 02:45:40;;;;;;;15.35;13.05;;;;;;;18.43;93.00;96104.09;4879696;29;20053;-79
2022/06/29 02:48:06;;;;;;;16.00;13.25;;;;;;;18.39;93.01;96082.00;4878252;29;20084;-78
2022/06/29 02:50:34;;;;;;;16.42;12.25;;;;;;;18.39;93.05;96084.75;4890693;29;20056;-81
2022/06/29 02:55:30;;;;;;;18.05;13.73;;;;;;;18.44;93.44;96073.41;4874979;29;20088;-78
2022/06/29 02:57:56;;;;;;;23.50;14.57;;;;;;;18.19;94.00;96064.03;4897001;29;20056;-79
2022/06/29 03:00:23;;;;;;;18.92;15.00;;;;;;;18.03;95.37;96050.44;4897260;29;20087;-79
2022/06/29 03:02:50;;;;;;;17.77;14.02;;;;;;;18.07;94.98;96059.53;4872915;29;20101;-80
2022/06/29 03:05:16;;;;;;;21.08;14.52;;;;;;;18.12;94.91;96058.44;4897865;29;20049;-79
2022/06/29 03:07:44;;;;;;;16.17;13.50;;;;;;;18.12;94.64;96056.47;4883126;29;20045;-81
2022/06/29 03:10:11;;;;;;;16.85;12.30;;;;;;;18.14;95.02;96047.81;4887091;29;20091;-79
2022/06/29 03:12:37;;;;;;;18.77;15.00;;;;;;;18.07;96.14;96065.06;4895887;29;20056;-79
2022/06/29 03:15:05;;;;;;;14.43;11.45;;;;;;;18.17;96.03;96078.19;4896614;29;20056;-79
2022/06/29 03:17:31;;;;;;;19.38;14.20;;;;;;;18.19;95.67;96088.81;4896840;29;20052;-80
2022/06/29 03:19:59;;;;;;;15.20;11.23;;;;;;;18.27;95.11;96085.00;4896074;29;20060;-79
2022/06/29 03:22:25;;;;;;;19.23;13.75;;;;;;;18.29;95.32;96090.94;4895820;29;20052;-80
2022/06/29 03:24:53;;;;;;;17.63;12.25;;;;;;;18.37;94.58;96076.03;4896382;29;20052;-80
2022/06/29 03:27:20;;;;;;;16.85;13.52;;;;;;;18.39;94.36;96076.50;4895943;29;20053;-81
2022/06/29 03:29:46;;;;;;;13.90;12.18;;;;;;;18.38;93.91;96087.91;4897530;29;20120;-80
2022/06/29 03:32:15;;;;;;;16.20;11.43;;;;;;;18.41;93.80;96078.84;4897414;29;20056;-80
2022/06/29 03:34:41;;;;;;;17.10;12.68;;;;;;;18.41;93.88;96071.38;4897083;29;20080;-80
2022/06/29 03:37:08;;;;;;;15.52;11.52;;;;;;;18.46;93.60;96070.25;4896178;29;20059;-79
2022/06/29 03:39:34;;;;;;;16.92;11.70;;;;;;;18.47;93.83;96072.63;4897710;29;20065;-80
2022/06/29 03:42:03;;;;;;;14.82;12.30;;;;;;;18.47;93.58;96061.59;4900754;29;20055;-80
2022/06/29 03:44:29;;;;;;;13.70;10.73;;;;;;;18.52;93.41;96075.06;4897911;29;20413;-81
2022/06/29 03:46:55;;;;;;;16.92;14.18;;;;;;;18.52;93.67;96075.06;4897742;29;20540;-80
2022/06/29 03:49:22;;;;;;;17.10;13.82;;;;;;;18.52;93.55;96069.53;4897686;29;20119;-80
2022/06/29 03:51:48;;;;;;;17.08;13.43;;;;;;;18.47;93.37;96083.66;4898604;29;20040;-80
2022/06/29 03:54:15;;;;;;;15.18;12.40;;;;;;;18.56;92.89;96082.59;4897555;29;20057;-81
2022/06/29 03:56:42;;;;;;;12.85;10.68;;;;;;;18.60;92.57;96080.66;4898209;29;20048;-82
2022/06/29 03:59:10;;;;;;;14.88;11.63;;;;;;;18.60;92.60;96064.13;4888758;29;20045;-81
2022/06/29 04:01:37;;;;;;;15.93;12.32;;;;;;;18.58;92.66;96078.25;4901793;29;20051;-82
2022/06/29 04:04:03;;;;;;;16.20;12.23;;;;;;;18.59;92.43;96070.81;4900362;29;20055;-80
2022/06/29 04:06:29;;;;;;;17.40;12.93;;;;;;;18.55;92.16;96072.72;4901217;29;20060;-81
2022/06/29 04:08:56;;;;;;;16.85;12.77;;;;;;;18.57;92.13;96075.91;4901204;29;20067;-81
2022/06/29 04:14:07;;;;;;;18.65;11.50;;;;;;;18.58;91.92;96067.22;4900063;29;20464;-81
2022/06/29 04:16:35;;;;;;;16.55;13.27;;;;;;;18.50;91.97;96060.06;4900361;29;20511;-81
2022/06/29 04:19:04;;;;;;;14.63;11.88;;;;;;;18.56;91.91;96052.25;4899307;29;20049;-76
2022/06/29 04:21:30;;;;;;;16.00;11.82;;;;;;;18.61;92.03;96060.19;4894514;29;20048;-80
2022/06/29 04:23:57;;;;;;;20.08;13.57;;;;;;;18.57;92.41;96056.59;4899576;29;20052;-80
2022/06/29 04:26:23;;;;;;;18.83;14.88;;;;;;;18.39;93.14;96067.44;4901104;29;20059;-80
2022/06/29 04:28:50;;;;;;;19.35;14.95;;;;;;;18.35;93.47;96070.13;4900085;29;20060;-80
2022/06/29 04:31:16;;;;;;;17.45;14.18;;;;;;;18.33;93.76;96078.00;4899135;29;20056;-81
2022/06/29 04:33:44;;;;;;;15.93;12.90;;;;;;;18.26;94.43;96083.41;4900360;29;20052;-81
2022/06/29 04:36:12;;;;;;;21.42;16.17;;;;;;;18.20;95.27;96085.69;4899918;29;20048;-80
2022/06/29 04:38:40;;;;;;;19.83;13.93;;;;;;;18.21;95.35;96092.78;4899273;29;20040;-81
2022/06/29 04:41:06;;;;;;;22.27;14.85;;;;;;;18.30;95.05;96088.97;4898769;29;20056;-79
2022/06/29 04:43:32;;;;;;;15.93;13.20;;;;;;;18.35;94.58;96091.38;4898982;29;20041;-80
2022/06/29 04:48:53;;;;;;;22.35;15.73;;;;;;;18.22;95.13;96083.38;4900161;29;20058;-81
2022/06/29 04:54:01;;;;;;;21.05;15.60;;;;;;;18.13;96.93;96095.84;4915989;29;20109;-85
2022/06/29 04:56:30;;;;;;;17.98;14.70;;;;;;;18.22;96.22;96083.38;4915726;29;20052;-84
2022/06/29 04:58:57;;;;;;;20.27;15.10;;;;;;;18.30;96.50;96084.25;4915611;29;20067;-85
2022/06/29 05:01:25;;;;;;;20.92;15.70;;;;;;;18.29;96.48;96082.66;4915410;29;20432;-78
2022/06/29 05:03:54;;;;;;;18.83;13.75;;;;;;;18.40;96.54;96083.59;4884205;29;20045;-79
2022/06/29 05:06:21;;;;;;;17.48;13.52;;;;;;;18.42;96.21;96075.72;4874445;29;20060;-77
2022/06/29 05:08:48;;;;;;;20.77;15.00;;;;;;;18.27;96.01;96068.47;4875911;29;20048;-80
2022/06/29 05:11:17;;;;;;;18.23;14.13;;;;;;;18.38;95.55;96063.09;5014292;23;20035;-86
2022/06/29 05:13:46;;;;;;;21.42;15.48;;;;;;;18.03;98.02;96058.69;4982124;23;20051;-76
2022/06/29 05:16:13;;;;;;;21.42;15.43;;;;;;;17.96;97.97;96042.88;5109420;23;20025;-86
2022/06/29 05:21:09;;;;;;;16.65;13.05;;;;;;;18.22;97.60;96032.97;5303865;23;20064;-85
2022/06/29 05:23:35;;;;;;;19.00;13.00;;;;;;;18.33;97.34;96022.88;4916883;29;20056;-82
2022/06/29 05:30:59;;;;;;;21.40;14.73;;;;;;;18.39;97.36;96026.06;4890358;29;20049;-85
2022/06/29 05:33:26;;;;;;;14.35;12.20;;;;;;;18.42;96.91;96025.31;4898760;29;20045;-87
2022/06/29 05:35:53;;;;;;;16.92;12.98;;;;;;;18.48;96.34;96032.09;4901974;29;20045;-86
2022/06/29 05:38:21;;;;;;;14.40;11.52;;;;;;;18.54;96.14;96036.09;4901254;29;20053;-88
2022/06/29 05:40:48;;;;;;;17.08;12.60;;;;;;;18.59;95.77;96035.75;4885890;29;20052;-87
2022/06/29 05:43:15;;;;;;;18.98;14.15;;;;;;;18.44;95.68;96034.81;4901610;29;20052;-86
2022/06/29 05:45:42;;;;;;;18.00;12.48;;;;;;;18.45;96.33;96036.38;4926197;23;20052;-87
2022/06/29 05:48:10;;;;;;;17.40;12.18;;;;;;;18.55;95.65;96025.84;4906055;23;20148;-87
2022/06/29 05:50:36;;;;;;;18.65;13.52;;;;;;;18.55;96.26;96023.88;4901389;29;20049;-86
2022/06/29 05:53:04;;;;;;;16.27;13.50;;;;;;;18.57;96.16;96029.03;4898764;29;20056;-85
2022/06/29 05:55:32;;;;;;;17.45;14.18;;;;;;;18.61;96.39;96032.63;4900348;29;20055;-87
2022/06/29 05:58:07;;;;;;;14.13;12.57;;;;;;;18.65;95.98;96028.72;4900751;29;20045;-87
2022/06/29 06:03:02;;;;;;;16.27;12.95;;;;;;;18.78;95.27;96037.53;5120721;23;20032;-77
2022/06/29 06:08:04;;;;;;;16.40;11.60;;;;;;;18.83;94.64;96044.69;5474368;23;20051;-86
2022/06/29 06:10:32;;;;;;;18.98;14.10;;;;;;;18.77;94.86;96049.75;4900233;29;20041;-82
2022/06/29 06:12:59;;;;;;;20.08;13.85;;;;;;;18.84;94.78;96062.81;4899597;29;20456;-80
2022/06/29 06:15:25;;;;;;;16.80;12.45;;;;;;;18.81;93.88;96058.88;4898887;29;20044;-81
2022/06/29 06:17:52;;;;;;;16.70;12.57;;;;;;;18.70;92.42;96069.78;4898736;29;20052;-81
2022/06/29 06:20:19;;;;;;;15.85;10.05;;;;;;;18.74;92.99;96072.56;4908879;29;20053;-80
2022/06/29 06:22:46;;;;;;;18.52;11.55;;;;;;;18.66;93.25;96073.63;4900656;29;20070;-80
2022/06/29 06:25:12;;;;;;;14.00;11.07;;;;;;;18.69;93.14;96061.91;4899523;29;20048;-80
2022/06/29 06:27:41;;;;;;;13.68;10.02;;;;;;;18.80;93.05;96068.31;4899756;29;20045;-81
2022/06/29 06:30:08;;;;;;;13.88;11.13;;;;;;;18.89;93.18;96079.81;4899415;29;20053;-81
2022/06/29 06:32:35;;;;;;;15.63;10.70;;;;;;;18.93;92.62;96083.41;4903392;29;20049;-82
2022/06/29 06:35:01;;;;;;;18.30;11.20;;;;;;;18.84;92.90;96093.94;4897742;29;20057;-79
2022/06/29 07:22:30;;;;;;;9.57;7.93;;;;;;;19.03;90.71;96142.66;5661686;23;20080;-80
2022/06/29 07:30:11;;;;;;;13.95;8.80;;;;;;;18.76;91.16;96119.88;5225844;23;20044;-80
2022/06/29 08:17:33;;;;;;;13.40;8.85;;;;;;;19.31;84.72;96103.50;5383215;23;20121;-84
2022/06/29 08:30:16;;;;;;;12.20;8.00;;;;;;;19.11;83.33;96118.69;5085705;23;20028;-88
2022/06/29 08:35:20;;;;;;;12.23;9.20;;;;;;;19.13;85.17;96113.56;4991176;23;20061;-88
2022/06/29 08:48:54;;;;;;;10.88;7.03;;;;;;;19.44;83.59;96123.34;5068413;23;21453;-87
2022/06/29 09:02:30;;;;;;;11.45;7.65;;;;;;;19.62;82.54;96101.41;5455186;23;20045;-88
2022/06/29 09:04:57;;;;;;;9.55;7.43;;;;;;;19.73;82.99;96102.28;4889131;29;20049;-78
2022/06/29 09:07:24;;;;;;;10.30;7.97;;;;;;;19.59;80.82;96107.69;4899025;29;20043;-88
2022/06/29 09:12:26;;;;;;;11.80;7.90;;;;;;;19.69;81.52;96107.00;5246621;23;20501;-78
2022/06/29 09:14:53;;;;;;;9.98;7.45;;;;;;;19.71;81.37;96104.66;4879285;29;20052;-79
2022/06/29 09:17:20;;;;;;;9.77;6.93;;;;;;;19.84;81.24;96114.22;4878347;29;20080;-79
2022/06/29 09:19:49;;;;;;;10.30;7.68;;;;;;;19.91;80.76;96108.75;4878398;29;20060;-77
2022/06/29 09:22:16;;;;;;;8.77;6.35;;;;;;;20.10;81.32;96110.44;4875331;29;20068;-79
2022/06/29 09:24:42;;;;;;;9.55;6.30;;;;;;;20.44;83.71;96107.47;4879729;29;20049;-80
2022/06/29 09:27:11;;;;;;;9.15;6.80;;;;;;;20.67;80.60;96104.41;4879273;29;20524;-78
2022/06/29 09:29:41;;;;;;;7.47;6.60;;;;;;;20.92;79.32;96105.28;4882625;29;20045;-79
2022/06/29 09:32:09;;;;;;;8.13;6.35;;;;;;;21.18;79.50;96097.84;4878393;29;20101;-79
2022/06/29 09:34:37;;;;;;;7.68;5.65;;;;;;;21.43;75.17;96095.94;4878269;29;20048;-79
2022/06/29 09:37:07;;;;;;;7.88;6.22;;;;;;;21.49;74.30;96099.88;4878190;29;20045;-79
2022/06/29 09:39:35;;;;;;;6.65;5.25;;;;;;;21.53;72.86;96106.22;4878578;29;20053;-78
2022/06/29 09:42:01;;;;;;;7.82;5.68;;;;;;;21.61;73.24;96107.81;4878633;29;20056;-77
2022/06/29 09:44:28;;;;;;;11.13;5.82;;;;;;;21.36;71.76;96118.09;4878866;29;20056;-79
2022/06/29 09:46:57;;;;;;;14.15;6.22;;;;;;;21.27;70.68;96117.66;4878820;29;20052;-80
2022/06/29 09:49:26;;;;;;;10.10;5.50;;;;;;;21.24;71.23;96115.66;4894272;23;20048;-78
2022/06/29 09:51:55;;;;;;;7.90;4.85;;;;;;;21.37;72.32;96114.13;4900030;29;20710;-81
2022/06/29 09:54:25;;;;;;;8.80;4.55;;;;;;;21.40;70.07;96110.56;4898693;29;20041;-76
2022/06/29 09:56:53;;;;;;;7.75;5.10;;;;;;;21.20;69.71;96120.41;4896632;29;20068;-75
2022/06/29 10:02:34;;;;;;;6.18;5.10;;;;;;;21.07;71.10;96109.69;4896092;29;20057;-78
2022/06/29 10:05:04;;;;;;;6.22;5.05;;;;;;;21.01;72.74;96108.50;4896630;29;20051;-76
2022/06/29 10:07:31;;;;;;;9.65;5.20;;;;;;;21.13;71.57;96107.31;4896399;29;20477;-76
2022/06/29 10:10:00;;;;;;;7.53;5.43;;;;;;;21.31;72.30;96101.88;4896482;29;20519;-76
2022/06/29 10:15:30;;;;;;;7.60;4.80;;;;;;;21.44;73.39;96096.72;4895925;29;20047;-77
2022/06/29 10:18:08;;;;;;;7.85;4.90;;;;;;;21.47;73.00;96095.94;4896010;29;20532;-77
2022/06/29 10:20:39;;;;;;;9.02;5.53;;;;;;;21.59;75.26;96090.78;4899192;29;21383;-77
2022/06/29 10:23:05;;;;;;;7.28;4.65;;;;;;;21.74;71.85;96082.47;4895544;29;20065;-78
2022/06/29 10:25:35;;;;;;;6.63;5.10;;;;;;;22.00;71.06;96084.81;4896319;29;20048;-76
2022/06/29 10:28:16;;;;;;;9.85;4.97;;;;;;;22.11;69.51;96082.84;4895524;29;20045;-75
2022/06/29 10:30:43;;;;;;;8.18;5.45;;;;;;;22.40;70.91;96086.34;4895993;29;20469;-77
2022/06/29 10:33:32;;;;;;;7.18;5.75;;;;;;;22.56;65.33;96083.09;4895265;29;20520;-79
2022/06/29 10:36:04;;;;;;;9.68;5.88;;;;;;;22.51;65.47;96079.94;4895833;29;20057;-77
2022/06/29 10:38:32;;;;;;;6.50;5.32;;;;;;;22.80;72.30;96075.06;4895520;29;20107;-78
2022/06/29 10:43:07;;;;;;;7.75;6.10;;;;;;;22.92;67.61;96078.19;4895653;29;20049;-77
2022/06/29 10:43:56;;;;;;;9.20;5.85;;;;;;;22.94;67.41;96077.78;4895957;29;20491;-75
2022/06/29 10:46:23;;;;;;;8.60;6.60;;;;;;;22.81;66.72;96073.84;4894971;29;20131;-76
2022/06/29 10:49:20;;;;;;;6.18;4.72;;;;;;;22.63;65.73;96071.97;4895082;29;20052;-75
2022/06/29 10:51:47;;;;;;;10.23;6.68;;;;;;;22.44;70.59;96074.41;4883086;29;20045;-75
2022/06/29 10:54:25;;;;;;;5.85;5.03;;;;;;;22.59;69.94;96071.19;4876094;29;20105;-75
2022/06/29 10:56:53;;;;;;;10.43;6.53;;;;;;;22.20;72.44;96070.53;4876760;29;20049;-75
2022/06/29 10:59:35;;;;;;;9.95;6.20;;;;;;;22.24;72.91;96062.97;4876158;29;20056;-76
2022/06/29 11:02:11;;;;;;;9.25;6.03;;;;;;;21.93;68.02;96062.66;4873480;29;20052;-76
2022/06/29 11:04:38;;;;;;;8.35;6.38;;;;;;;21.87;69.73;96064.22;4876713;29;20436;-77
2022/06/29 11:12:47;;;;;;;8.82;6.20;;;;;;;21.89;74.07;96056.31;4876517;29;20051;-77
2022/06/29 11:17:57;;;;;;;8.70;5.88;;;;;;;21.65;73.44;96048.81;4877290;29;20801;-76
2022/06/29 11:20:24;;;;;;;10.75;5.97;;;;;;;21.78;74.47;96044.47;4877403;29;20872;-78
2022/06/29 11:22:54;;;;;;;10.48;5.82;;;;;;;21.79;72.33;96046.03;4877362;29;20041;-81
2022/06/29 11:25:20;;;;;;;7.63;5.40;;;;;;;21.86;73.56;96051.56;4876789;29;20559;-75
2022/06/29 11:27:48;;;;;;;9.93;5.70;;;;;;;21.93;70.17;96051.56;4876423;29;20144;-76
2022/06/29 11:30:22;;;;;;;7.13;5.40;;;;;;;21.99;70.39;96052.75;4875903;29;20413;-77
2022/06/29 11:32:49;;;;;;;8.90;6.50;;;;;;;21.98;70.60;96042.03;4876340;29;20061;-78
2022/06/29 11:35:17;;;;;;;8.32;6.53;;;;;;;21.93;69.11;96046.03;4877262;29;20053;-74
2022/06/29 11:37:49;;;;;;;8.40;6.40;;;;;;;21.99;69.00;96052.75;4875989;29;20052;-74
2022/06/29 11:40:19;;;;;;;8.85;5.75;;;;;;;21.94;69.22;96053.16;4875960;29;20056;-75
2022/06/29 11:45:41;;;;;;;7.38;5.03;;;;;;;22.24;70.55;96058.25;4865469;29;20056;-80
2022/06/29 11:48:15;;;;;;;8.32;6.50;;;;;;;22.26;69.70;96060.63;4875894;29;20068;-78
2022/06/29 11:50:43;;;;;;;6.45;4.70;;;;;;;22.33;70.36;96058.59;4860821;29;20045;-78
2022/06/29 11:53:10;;;;;;;5.78;4.50;;;;;;;22.40;69.10;96066.13;4875888;29;20068;-79
2022/06/29 11:55:40;;;;;;;7.97;5.03;;;;;;;22.41;67.41;96062.16;4876265;29;20052;-78
2022/06/29 11:58:10;;;;;;;8.07;6.10;;;;;;;22.24;66.22;96063.81;4875565;29;20060;-79
2022/06/29 12:00:39;;;;;;;8.07;5.50;;;;;;;22.14;67.13;96047.97;4876245;29;20045;-78
2022/06/29 12:03:07;;;;;;;6.45;5.43;;;;;;;22.18;66.35;96045.19;4879544;29;20156;-81
2022/06/29 12:05:33;;;;;;;7.53;5.65;;;;;;;22.31;69.48;96049.91;4883143;29;20064;-78
2022/06/29 12:07:59;;;;;;;6.82;5.95;;;;;;;22.09;66.13;96043.59;4876515;29;20064;-79
2022/06/29 12:10:26;;;;;;;10.18;6.35;;;;;;;22.14;67.86;96046.00;4885316;29;20406;-79
2022/06/29 12:12:52;;;;;;;10.07;5.55;;;;;;;22.29;68.98;96052.28;4877149;29;20097;-77
2022/06/29 12:15:19;;;;;;;8.20;5.28;;;;;;;22.32;68.00;96053.47;4875654;29;20065;-76
2022/06/29 12:17:47;;;;;;;7.22;5.93;;;;;;;22.38;68.39;96057.41;4876317;29;20497;-77
2022/06/29 12:20:13;;;;;;;6.88;5.15;;;;;;;22.41;68.09;96053.81;4881293;29;20614;-79
2022/06/29 12:22:40;;;;;;;7.35;5.35;;;;;;;22.44;68.34;96053.00;4898360;29;20047;-79
2022/06/29 12:25:07;;;;;;;9.10;6.47;;;;;;;22.38;66.54;96054.63;4898260;29;20055;-79
2022/06/29 12:27:36;;;;;;;9.10;6.40;;;;;;;22.33;66.46;96052.25;4898050;29;20052;-78
2022/06/29 12:30:06;;;;;;;8.38;5.88;;;;;;;22.43;66.92;96051.44;4898443;29;20055;-79
2022/06/29 12:32:32;;;;;;;8.50;6.53;;;;;;;22.24;65.91;96044.38;4900123;29;20100;-78
2022/06/29 12:35:00;;;;;;;8.15;5.40;;;;;;;22.37;68.81;96053.03;4898145;29;20068;-77
2022/06/29 12:37:27;;;;;;;5.53;5.00;;;;;;;22.45;68.55;96060.16;4897801;29;20056;-78
2022/06/29 12:39:53;;;;;;;10.10;5.55;;;;;;;22.37;66.39;96058.59;4897529;29;20049;-79
2022/06/29 12:42:21;;;;;;;9.85;6.18;;;;;;;22.40;67.25;96053.03;4897190;29;20452;-81
2022/06/29 12:44:47;;;;;;;9.68;5.10;;;;;;;22.45;68.12;96057.38;4897726;29;20040;-79
2022/06/29 12:47:14;;;;;;;8.05;5.32;;;;;;;22.52;66.31;96060.13;4897104;29;20052;-78
2022/06/29 12:49:41;;;;;;;7.63;5.00;;;;;;;22.50;66.25;96068.06;4896549;29;20496;-77
2022/06/29 12:52:08;;;;;;;5.88;4.75;;;;;;;22.58;64.99;96052.16;4896288;29;20051;-76
2022/06/29 12:54:35;;;;;;;5.97;4.45;;;;;;;22.79;68.90;96057.59;4897456;29;20056;-76
2022/06/29 12:57:01;;;;;;;7.95;4.57;;;;;;;22.85;69.82;96055.19;4897095;29;20057;-75
2022/06/29 12:59:28;;;;;;;6.05;4.43;;;;;;;22.81;65.33;96052.47;4897487;29;20052;-79
2022/06/29 13:01:54;;;;;;;8.52;5.40;;;;;;;22.85;69.42;96061.53;4903484;29;20419;-80
2022/06/29 13:04:21;;;;;;;8.25;5.65;;;;;;;22.85;69.34;96055.19;4905772;29;21322;-78
2022/06/29 13:06:47;;;;;;;8.27;6.22;;;;;;;22.88;70.01;96051.66;4901792;29;20044;-79
2022/06/29 13:09:15;;;;;;;10.57;6.85;;;;;;;22.70;69.58;96053.69;4896996;29;20060;-79
2022/06/29 13:11:42;;;;;;;10.07;6.45;;;;;;;22.57;70.15;96051.38;4897396;29;20492;-78
2022/06/29 13:14:08;;;;;;;9.00;6.43;;;;;;;22.62;70.49;96052.94;4896951;29;20408;-77
2022/06/29 13:16:34;;;;;;;8.15;6.40;;;;;;;22.49;72.06;96046.25;4911751;29;20505;-79
2022/06/29 13:19:01;;;;;;;9.27;5.20;;;;;;;22.57;72.42;96048.59;4888845;29;20075;-80
2022/06/29 13:21:28;;;;;;;11.13;6.40;;;;;;;22.50;71.87;96056.16;4894274;29;20452;-79
2022/06/29 13:23:54;;;;;;;8.90;6.60;;;;;;;22.35;71.55;96049.91;4898331;29;20044;-76
2022/06/29 13:26:22;;;;;;;9.82;6.28;;;;;;;22.37;72.89;96047.50;4899308;29;20048;-77
2022/06/29 13:28:48;;;;;;;9.40;7.05;;;;;;;22.24;72.15;96051.88;4896835;29;20048;-77
2022/06/29 13:31:15;;;;;;;11.32;6.57;;;;;;;22.33;73.32;96047.50;4896923;29;20625;-79
2022/06/29 13:33:41;;;;;;;7.85;5.70;;;;;;;22.37;72.88;96053.03;4903262;29;20048;-81
2022/06/29 13:36:08;;;;;;;11.15;7.30;;;;;;;22.26;72.12;96046.75;4897810;29;20085;-76
2022/06/29 13:38:34;;;;;;;8.32;5.82;;;;;;;22.29;72.74;96051.47;4896812;29;20044;-79
2022/06/29 13:41:01;;;;;;;10.13;7.18;;;;;;;22.11;72.64;96051.53;4896842;29;20433;-78
2022/06/29 13:43:29;;;;;;;7.00;5.18;;;;;;;22.30;73.37;96055.84;4896423;29;20048;-78
2022/06/29 13:45:56;;;;;;;12.02;6.85;;;;;;;22.13;71.58;96061.06;4896359;29;20064;-78
2022/06/29 13:48:23;;;;;;;8.43;6.55;;;;;;;22.12;72.18;96065.00;4896347;29;20048;-76
2022/06/29 13:50:49;;;;;;;9.27;6.30;;;;;;;22.17;73.20;96060.25;4893004;29;20045;-80
2022/06/29 13:53:16;;;;;;;6.88;5.82;;;;;;;22.10;72.44;96061.84;4897294;29;20044;-80
2022/06/29 13:55:42;;;;;;;11.32;7.15;;;;;;;22.19;74.05;96057.88;4898394;29;20044;-79
2022/06/29 13:58:09;;;;;;;10.65;6.47;;;;;;;22.27;74.45;96059.41;4901156;29;20048;-84
2022/06/29 14:00:37;;;;;;;10.52;6.32;;;;;;;22.30;74.62;96058.63;4901048;29;20075;-79
2022/06/29 14:03:04;;;;;;;9.40;6.55;;;;;;;22.33;74.02;96060.59;4896070;29;20489;-80
2022/06/29 14:05:31;;;;;;;8.80;6.97;;;;;;;22.31;73.72;96060.19;4896618;29;20061;-75
2022/06/29 14:07:58;;;;;;;6.97;6.28;;;;;;;22.42;74.44;96058.19;4906298;29;20052;-75
2022/06/29 14:10:25;;;;;;;10.25;6.95;;;;;;;22.38;72.48;96054.63;4895651;29;20044;-76
2022/06/29 14:12:51;;;;;;;10.07;7.35;;;;;;;22.35;72.60;96056.22;4896434;29;20044;-76
2022/06/29 14:15:18;;;;;;;10.07;7.28;;;;;;;22.24;72.57;96049.13;4895571;29;20072;-75
2022/06/29 14:17:46;;;;;;;15.15;13.07;;;;;;;22.25;72.08;96050.72;4900028;29;20045;-78
2022/06/29 14:20:13;;;;;;;9.20;7.22;;;;;;;22.26;72.89;96042.00;4891221;29;20101;-79
2022/06/29 14:22:39;;;;;;;10.77;8.23;;;;;;;22.31;73.05;96049.09;4894187;29;20056;-78
2022/06/29 14:25:07;;;;;;;9.95;7.18;;;;;;;22.28;73.25;96044.34;4899022;29;20053;-87